| time (UTC) | temp F | wind direction | speed knots | gust knots | rain 1hr in | rain 24hr in | rain mn in | humidity % | barometer mb |
| 20260504205127 | 78 | 247 | 1.7 | 5.2 | 0.00 | 0.00 | 0.00 | 39 | 1014.1 |
| 20260504204625 | 78 | 74 | 2.6 | 2.6 | 0.00 | 0.00 | 0.00 | 47 | 1014.2 |
| 20260504204124 | 78 | 134 | 0.9 | 6.1 | 0.00 | 0.00 | 0.00 | 42 | 1014.1 |
| 20260504203622 | 80 | 120 | 3.5 | 3.5 | 0.00 | 0.00 | 0.00 | 48 | 1014.0 |
| 20260504203119 | 80 | 103 | 0.0 | 2.6 | 0.00 | 0.00 | 0.00 | 42 | 1014.0 |
| 20260504202614 | 79 | 260 | 1.7 | 2.6 | 0.00 | 0.00 | 0.00 | 41 | 1014.1 |
| 20260504202111 | 79 | 82 | 3.5 | 5.2 | 0.00 | 0.00 | 0.00 | 43 | 1014.2 |
| 20260504201608 | 79 | 115 | 2.6 | 2.6 | 0.00 | 0.00 | 0.00 | 39 | 1014.3 |
| 20260504201106 | 79 | 177 | 1.7 | 1.7 | 0.00 | 0.00 | 0.00 | 45 | 1014.6 |
| 20260504200602 | 78 | 35 | 0.9 | 3.5 | 0.00 | 0.00 | 0.00 | 40 | 1014.6 |
| 20260504200059 | 79 | 125 | 7.0 | 7.8 | 0.00 | 0.00 | 0.00 | 40 | 1014.5 |
| 20260504195555 | 79 | 70 | 1.7 | 3.5 | 0.00 | 0.00 | 0.00 | 38 | 1014.4 |
| 20260504195051 | 78 | 84 | 0.9 | 5.2 | 0.00 | 0.00 | 0.00 | 41 | 1014.6 |
| 20260504194548 | 78 | 48 | 0.9 | 7.0 | 0.00 | 0.00 | 0.00 | 40 | 1014.5 |
| 20260504194044 | 79 | 142 | 7.8 | 12.2 | 0.00 | 0.00 | 0.00 | 43 | 1014.7 |
| 20260504193540 | 79 | 146 | 1.7 | 1.7 | 0.00 | 0.00 | 0.00 | 43 | 1014.8 |
| 20260504193039 | 79 | 140 | 2.6 | 5.2 | 0.00 | 0.00 | 0.00 | 41 | 1014.9 |
| 20260504192537 | 78 | 3 | 0.0 | 2.6 | 0.00 | 0.00 | 0.00 | 49 | 1015.0 |
| 20260504192035 | 78 | 66 | 2.6 | 5.2 | 0.00 | 0.00 | 0.00 | 44 | 1015.0 |
| 20260504191533 | 79 | 137 | 0.9 | 3.5 | 0.00 | 0.00 | 0.00 | 47 | 1015.1 |
| 20260504191029 | 78 | 94 | 0.9 | 1.7 | 0.00 | 0.00 | 0.00 | 46 | 1015.2 |
| 20260504190525 | 78 | 91 | 3.5 | 7.8 | 0.00 | 0.00 | 0.00 | 46 | 1015.2 |
| 20260504190021 | 79 | 24 | 5.2 | 6.1 | 0.00 | 0.00 | 0.00 | 43 | 1015.4 |
| 20260504185518 | 78 | 153 | 0.9 | 2.6 | 0.00 | 0.00 | 0.00 | 46 | 1015.3 |
| 20260504185015 | 78 | 352 | 0.9 | 5.2 | 0.00 | 0.00 | 0.00 | 41 | 1015.7 |
| 20260504184510 | 78 | 175 | 1.7 | 5.2 | 0.00 | 0.00 | 0.00 | 44 | 1015.4 |
| 20260504184006 | 78 | 115 | 3.5 | 5.2 | 0.00 | 0.00 | 0.00 | 48 | 1015.5 |
| 20260504183503 | 78 | 21 | 3.5 | 3.5 | 0.00 | 0.00 | 0.00 | 45 | 1015.5 |
| 20260504183001 | 77 | 328 | 0.9 | 2.6 | 0.00 | 0.00 | 0.00 | 44 | 1015.7 |
| 20260504182458 | 77 | 72 | 2.6 | 8.7 | 0.00 | 0.00 | 0.00 | 44 | 1015.6 |
| 20260504181955 | 77 | 67 | 2.6 | 3.5 | 0.00 | 0.00 | 0.00 | 46 | 1015.7 |
| 20260504181452 | 77 | 125 | 0.0 | 1.7 | 0.00 | 0.00 | 0.00 | 47 | 1016.0 |
| 20260504180950 | 76 | 38 | 1.7 | 5.2 | 0.00 | 0.00 | 0.00 | 49 | 1015.9 |
| 20260504180449 | 77 | 12 | 2.6 | 6.1 | 0.00 | 0.00 | 0.00 | 45 | 1016.0 |
| 20260504175947 | 77 | 146 | 0.9 | 0.9 | 0.00 | 0.00 | 0.00 | 47 | 1016.1 |
| 20260504175444 | 76 | 101 | 1.7 | 5.2 | 0.00 | 0.00 | 0.00 | 49 | 1016.1 |
| 20260504174941 | 76 | 173 | 4.3 | 7.8 | 0.00 | 0.00 | 0.00 | 51 | 1016.1 |
| 20260504174439 | 77 | 288 | 2.6 | 3.5 | 0.00 | 0.00 | 0.00 | 50 | 1016.3 |
| 20260504173936 | 77 | 331 | 1.7 | 2.6 | 0.00 | 0.00 | 0.00 | 53 | 1016.3 |
| 20260504173432 | 77 | 351 | 1.7 | 3.5 | 0.00 | 0.00 | 0.00 | 51 | 1016.4 |
| 20260504172930 | 77 | 105 | 1.7 | 1.7 | 0.00 | 0.00 | 0.00 | 51 | 1016.4 |
| 20260504172426 | 77 | 198 | 0.9 | 2.6 | 0.00 | 0.00 | 0.00 | 46 | 1016.5 |
| 20260504171922 | 77 | 313 | 1.7 | 2.6 | 0.00 | 0.00 | 0.00 | 45 | 1016.9 |
| 20260504171420 | 76 | 245 | 2.6 | 5.2 | 0.00 | 0.00 | 0.00 | 48 | 1016.7 |
| 20260504170916 | 75 | 352 | 0.0 | 1.7 | 0.00 | 0.00 | 0.00 | 45 | 1016.8 |
| 20260504170413 | 74 | 344 | 1.7 | 6.1 | 0.00 | 0.00 | 0.00 | 51 | 1016.7 |
| 20260504160332 | 73 | 14 | 3.5 | 6.1 | 0.00 | 0.00 | 0.00 | 49 | 1017.3 |
| 20260504150756 | 72 | 55 | 1.7 | 2.6 | 0.00 | 0.00 | 0.00 | 54 | 1017.6 |
| 20260504150253 | 72 | 92 | 1.7 | 5.2 | 0.00 | 0.00 | 0.00 | 44 | 1017.6 |
| 20260504141223 | 67 | 89 | 1.7 | 2.6 | 0.00 | 0.00 | 0.00 | 59 | 1018.2 |
| 20260504140720 | 68 | 74 | 0.9 | 2.6 | 0.00 | 0.00 | 0.00 | 52 | 1018.4 |
| 20260504140215 | 67 | 90 | 0.0 | 1.7 | 0.00 | 0.00 | 0.00 | 55 | 1018.3 |
| 20260504130643 | 61 | 143 | 0.0 | 1.7 | 0.00 | 0.00 | 0.00 | 71 | 1018.6 |
| 20260504130140 | 60 | 143 | 0.9 | 0.9 | 0.00 | 0.00 | 0.00 | 71 | 1018.5 |
| 20260504120104 | 49 | 219 | 0.0 | 0.9 | 0.00 | 0.00 | 0.00 | 96 | 1018.2 |
| 20260504110531 | 46 | 231 | 0.9 | 0.9 | 0.00 | 0.00 | 0.00 | 97 | 1017.9 |
| 20260504100454 | 46 | 233 | 0.0 | 0.9 | 0.00 | 0.00 | 0.00 | 96 | 1017.6 |
| 20260504081847 | 46 | 249 | 0.9 | 0.9 | 0.00 | 0.00 | 0.00 | 95 | 1017.5 |
| 20260504081343 | 46 | 249 | 0.9 | 0.9 | 0.00 | 0.00 | 0.00 | 94 | 1017.6 |
| 20260504080839 | 46 | 249 | 0.9 | 0.9 | 0.00 | 0.00 | 0.00 | 94 | 1017.6 |
| 20260504080337 | 46 | 249 | 1.7 | 1.7 | 0.00 | 0.00 | 0.00 | 95 | 1017.5 |
| 20260504070304 | 47 | 253 | 0.9 | 0.9 | 0.00 | 0.00 | 0.00 | 93 | 1018.1 |
| 20260504060224 | 46 | 292 | 0.9 | 0.9 | 0.00 | 0.00 | 0.00 | 93 | 1018.7 |
| 20260504050652 | 47 | 293 | 0.9 | 0.9 | 0.00 | 0.00 | 0.00 | 91 | 1018.8 |
| 20260504050149 | 47 | 293 | 0.0 | 0.0 | 0.00 | 0.00 | 0.00 | 91 | 1018.8 |
| 20260504045646 | 47 | 293 | 0.0 | 0.9 | 0.00 | 0.00 | 0.00 | 91 | 1018.7 |
| 20260504045146 | 47 | 292 | 0.9 | 0.9 | 0.00 | 0.00 | 0.00 | 90 | 1018.6 |
| 20260504044644 | 47 | 293 | 0.9 | 0.9 | 0.00 | 0.00 | 0.00 | 90 | 1018.6 |
| 20260504044141 | 47 | 293 | 0.9 | 0.9 | 0.00 | 0.00 | 0.00 | 89 | 1018.5 |
| 20260504043638 | 47 | 293 | 0.9 | 0.9 | 0.00 | 0.00 | 0.00 | 89 | 1018.8 |
| 20260504043135 | 48 | 293 | 0.0 | 0.0 | 0.00 | 0.00 | 0.00 | 88 | 1018.7 |
| 20260504042632 | 48 | 293 | 0.0 | 0.0 | 0.00 | 0.00 | 0.00 | 87 | 1018.8 |
| 20260504042129 | 48 | 292 | 0.9 | 0.9 | 0.00 | 0.00 | 0.00 | 88 | 1018.6 |
| 20260504041624 | 48 | 293 | 0.9 | 0.9 | 0.00 | 0.00 | 0.00 | 88 | 1018.8 |
| 20260504041121 | 48 | 293 | 0.0 | 0.9 | 0.00 | 0.00 | 0.00 | 87 | 1018.7 |
| 20260504040618 | 48 | 293 | 0.9 | 0.9 | 0.00 | 0.00 | 0.00 | 88 | 1018.9 |
| 20260504040115 | 48 | 293 | 0.0 | 0.9 | 0.00 | 0.00 | 0.00 | 87 | 1018.9 |
| 20260504035612 | 48 | 293 | 0.9 | 0.9 | 0.00 | 0.00 | 0.00 | 87 | 1019.2 |
| 20260504035108 | 48 | 293 | 0.9 | 0.9 | 0.00 | 0.00 | 0.00 | 87 | 1019.0 |
| 20260504034606 | 49 | 293 | 0.9 | 0.9 | 0.00 | 0.00 | 0.00 | 86 | 1019.0 |
| 20260504034103 | 49 | 319 | 1.7 | 1.7 | 0.00 | 0.00 | 0.00 | 87 | 1019.2 |
| 20260504033601 | 49 | 319 | 0.9 | 0.9 | 0.00 | 0.00 | 0.00 | 86 | 1019.1 |
| 20260504033058 | 49 | 319 | 0.9 | 0.9 | 0.00 | 0.00 | 0.00 | 86 | 1019.3 |
| 20260504032555 | 49 | 319 | 0.9 | 0.9 | 0.00 | 0.00 | 0.00 | 87 | 1019.4 |
| 20260504032052 | 49 | 319 | 0.9 | 0.9 | 0.00 | 0.00 | 0.00 | 87 | 1019.3 |
| 20260504031548 | 49 | 319 | 0.9 | 0.9 | 0.00 | 0.00 | 0.00 | 86 | 1019.4 |
| 20260504031044 | 49 | 319 | 0.0 | 0.0 | 0.00 | 0.00 | 0.00 | 86 | 1019.3 |
| 20260504030542 | 49 | 319 | 0.9 | 0.9 | 0.00 | 0.00 | 0.00 | 86 | 1019.6 |
| 20260504030038 | 50 | 319 | 0.0 | 0.9 | 0.00 | 0.00 | 0.00 | 84 | 1019.6 |
| 20260504025536 | 49 | 319 | 0.9 | 0.9 | 0.00 | 0.00 | 0.00 | 83 | 1019.4 |
| 20260504025032 | 49 | 319 | 0.9 | 0.9 | 0.00 | 0.00 | 0.00 | 85 | 1019.1 |
| 20260504024529 | 50 | 319 | 0.0 | 0.0 | 0.00 | 0.00 | 0.00 | 84 | 1019.3 |
| 20260504024026 | 50 | 319 | 0.0 | 0.0 | 0.00 | 0.00 | 0.00 | 84 | 1019.4 |
| 20260504023522 | 50 | 319 | 0.0 | 0.9 | 0.00 | 0.00 | 0.00 | 82 | 1019.1 |
| 20260504023018 | 50 | 319 | 0.9 | 0.9 | 0.00 | 0.00 | 0.00 | 84 | 1019.1 |
| 20260504022514 | 51 | 319 | 0.0 | 0.0 | 0.00 | 0.00 | 0.00 | 83 | 1018.9 |
| 20260504022011 | 51 | 319 | 0.0 | 0.9 | 0.00 | 0.00 | 0.00 | 82 | 1018.8 |
| 20260504021509 | 51 | 319 | 0.0 | 0.9 | 0.00 | 0.00 | 0.00 | 82 | 1018.9 |
| 20260504021006 | 51 | 319 | 0.9 | 0.9 | 0.00 | 0.00 | 0.00 | 83 | 1018.8 |
| 20260504020502 | 51 | 319 | 0.9 | 0.9 | 0.00 | 0.00 | 0.00 | 81 | 1018.6 |
| 20260504015959 | 51 | 319 | 0.0 | 0.0 | 0.00 | 0.00 | 0.00 | 82 | 1018.6 |
| 20260504015455 | 52 | 319 | 0.0 | 0.0 | 0.00 | 0.00 | 0.00 | 82 | 1018.8 |
| 20260504014951 | 52 | 318 | 0.9 | 0.9 | 0.00 | 0.00 | 0.00 | 80 | 1018.6 |
| 20260504014447 | 52 | 321 | 0.9 | 0.9 | 0.00 | 0.00 | 0.00 | 79 | 1018.7 |
| 20260504013944 | 53 | 322 | 0.9 | 0.9 | 0.00 | 0.00 | 0.00 | 80 | 1018.5 |
| 20260504013443 | 53 | 322 | 0.9 | 0.9 | 0.00 | 0.00 | 0.00 | 78 | 1018.4 |
| 20260504012938 | 53 | 326 | 0.0 | 0.0 | 0.00 | 0.00 | 0.00 | 79 | 1018.4 |
| 20260504012437 | 54 | 326 | 0.0 | 0.9 | 0.00 | 0.00 | 0.00 | 79 | 1018.6 |
| 20260504011934 | 54 | 326 | 0.9 | 0.9 | 0.00 | 0.00 | 0.00 | 78 | 1018.3 |
| 20260504011430 | 54 | 326 | 0.9 | 0.9 | 0.00 | 0.00 | 0.00 | 77 | 1018.3 |
| 20260504010926 | 54 | 326 | 0.9 | 0.9 | 0.00 | 0.00 | 0.00 | 75 | 1018.4 |
| 20260504010422 | 54 | 326 | 0.9 | 0.9 | 0.00 | 0.00 | 0.00 | 77 | 1018.4 |
| 20260504005919 | 54 | 326 | 0.9 | 0.9 | 0.00 | 0.00 | 0.00 | 79 | 1018.3 |
| 20260504005415 | 55 | 326 | 0.0 | 0.0 | 0.00 | 0.00 | 0.00 | 78 | 1018.3 |
| 20260504004913 | 55 | 326 | 0.0 | 0.0 | 0.00 | 0.00 | 0.00 | 76 | 1018.4 |
| 20260504004411 | 55 | 326 | 0.0 | 0.9 | 0.00 | 0.00 | 0.00 | 77 | 1018.3 |
| 20260504003908 | 55 | 326 | 0.9 | 0.9 | 0.00 | 0.00 | 0.00 | 77 | 1018.3 |
| 20260504003404 | 55 | 326 | 0.0 | 0.0 | 0.00 | 0.00 | 0.00 | 75 | 1018.4 |
| 20260504002900 | 56 | 326 | 0.0 | 0.0 | 0.00 | 0.00 | 0.00 | 72 | 1018.3 |
| 20260504002357 | 57 | 326 | 0.0 | 0.0 | 0.00 | 0.00 | 0.00 | 73 | 1018.3 |
| 20260504001855 | 57 | 326 | 0.9 | 0.9 | 0.00 | 0.00 | 0.00 | 70 | 1018.5 |
| 20260504001352 | 57 | 326 | 0.0 | 0.0 | 0.00 | 0.00 | 0.00 | 67 | 1018.3 |
| 20260504000849 | 58 | 326 | 0.0 | 0.0 | 0.00 | 0.00 | 0.00 | 62 | 1018.2 |
| 20260504000346 | 59 | 326 | 0.0 | 0.0 | 0.00 | 0.00 | 0.00 | 61 | 1018.3 |
| 20260503235844 | 60 | 326 | 0.0 | 0.0 | 0.00 | 0.00 | 0.00 | 61 | 1018.1 |
| 20260503235341 | 60 | 326 | 0.0 | 0.0 | 0.00 | 0.00 | 0.00 | 59 | 1018.1 |
| 20260503234838 | 61 | 326 | 0.0 | 0.0 | 0.00 | 0.00 | 0.00 | 59 | 1018.1 |
| 20260503234336 | 61 | 326 | 0.0 | 0.0 | 0.00 | 0.00 | 0.00 | 55 | 1018.2 |
| 20260503233833 | 62 | 326 | 0.0 | 0.0 | 0.00 | 0.00 | 0.00 | 54 | 1018.2 |
| 20260503233329 | 62 | 326 | 0.9 | 0.9 | 0.00 | 0.00 | 0.00 | 55 | 1018.2 |
| 20260503232826 | 62 | 326 | 0.9 | 0.9 | 0.00 | 0.00 | 0.00 | 51 | 1018.2 |
| 20260503232323 | 63 | 326 | 0.9 | 1.7 | 0.00 | 0.00 | 0.00 | 53 | 1018.3 |
| 20260503231821 | 63 | 286 | 0.9 | 0.9 | 0.00 | 0.00 | 0.00 | 51 | 1018.3 |
| 20260503231318 | 63 | 286 | 0.9 | 1.7 | 0.00 | 0.00 | 0.00 | 51 | 1018.4 |
| 20260503230814 | 64 | 287 | 0.0 | 0.9 | 0.00 | 0.00 | 0.00 | 51 | 1018.3 |
| 20260503230311 | 65 | 287 | 0.9 | 0.9 | 0.00 | 0.00 | 0.00 | 49 | 1018.3 |
| 20260503225809 | 66 | 308 | 0.9 | 2.6 | 0.00 | 0.00 | 0.00 | 47 | 1018.3 |
| 20260503225304 | 67 | 31 | 1.7 | 2.6 | 0.00 | 0.00 | 0.00 | 44 | 1018.5 |
| 20260503224801 | 68 | 22 | 0.9 | 0.9 | 0.00 | 0.00 | 0.00 | 47 | 1018.4 |
| 20260503224258 | 68 | 23 | 0.9 | 0.9 | 0.00 | 0.00 | 0.00 | 49 | 1018.3 |
| 20260503223756 | 68 | 25 | 0.9 | 1.7 | 0.00 | 0.00 | 0.00 | 47 | 1018.3 |
| 20260503223253 | 68 | 358 | 1.7 | 3.5 | 0.00 | 0.00 | 0.00 | 43 | 1018.4 |
| 20260503222749 | 68 | 348 | 2.6 | 6.1 | 0.00 | 0.00 | 0.00 | 41 | 1018.4 |
| 20260503222247 | 69 | 323 | 3.5 | 3.5 | 0.00 | 0.00 | 0.00 | 42 | 1018.4 |
| 20260503221746 | 69 | 342 | 2.6 | 6.1 | 0.00 | 0.00 | 0.00 | 40 | 1018.5 |
| 20260503221243 | 69 | 328 | 1.7 | 2.6 | 0.00 | 0.00 | 0.00 | 41 | 1018.6 |
| 20260503220739 | 69 | 290 | 2.6 | 3.5 | 0.00 | 0.00 | 0.00 | 41 | 1018.6 |
| 20260503220236 | 69 | 35 | 2.6 | 3.5 | 0.00 | 0.00 | 0.00 | 39 | 1018.5 |
| 20260503215733 | 69 | 359 | 1.7 | 5.2 | 0.00 | 0.00 | 0.00 | 41 | 1018.8 |
| 20260503215230 | 70 | 349 | 1.7 | 2.6 | 0.00 | 0.00 | 0.00 | 39 | 1018.8 |
| 20260503214728 | 69 | 312 | 0.0 | 2.6 | 0.00 | 0.00 | 0.00 | 42 | 1018.6 |
| 20260503214225 | 69 | 328 | 0.9 | 5.2 | 0.00 | 0.00 | 0.00 | 40 | 1018.8 |
| 20260503213723 | 69 | 344 | 0.9 | 3.5 | 0.00 | 0.00 | 0.00 | 40 | 1018.8 |
| 20260503213220 | 70 | 277 | 3.5 | 5.2 | 0.00 | 0.00 | 0.00 | 38 | 1018.8 |
| 20260503212716 | 69 | 309 | 2.6 | 2.6 | 0.00 | 0.00 | 0.00 | 42 | 1018.9 |
| 20260503212214 | 69 | 16 | 3.5 | 6.1 | 0.00 | 0.00 | 0.00 | 38 | 1018.9 |
| 20260503211712 | 69 | 343 | 2.6 | 6.1 | 0.00 | 0.00 | 0.00 | 40 | 1019.0 |
| 20260503211208 | 69 | 329 | 2.6 | 6.1 | 0.00 | 0.00 | 0.00 | 43 | 1019.2 |
| 20260503210704 | 70 | 3 | 1.7 | 3.5 | 0.00 | 0.00 | 0.00 | 40 | 1019.1 |
| 20260503210201 | 70 | 95 | 0.0 | 2.6 | 0.00 | 0.00 | 0.00 | 42 | 1019.2 |
| 20260503205655 | 69 | 315 | 1.7 | 5.2 | 0.00 | 0.00 | 0.00 | 36 | 1019.2 |